sensor_id;sensor_type;location;lat;lon;timestamp;pressure;altitude;pressure_sealevel;temperature;humidity
17855;BME280;9053;53.358;6.382;2022-11-23T00:02:06;99447.88;;;8.52;100.00
17855;BME280;9053;53.358;6.382;2022-11-23T00:04:38;99434.78;;;8.52;100.00
17855;BME280;9053;53.358;6.382;2022-11-23T00:07:08;99448.81;;;8.55;100.00
17855;BME280;9053;53.358;6.382;2022-11-23T00:09:38;99444.47;;;8.57;100.00
17855;BME280;9053;53.358;6.382;2022-11-23T00:12:08;99448.84;;;8.58;100.00
17855;BME280;9053;53.358;6.382;2022-11-23T00:14:38;99441.00;;;8.58;100.00
17855;BME280;9053;53.358;6.382;2022-11-23T00:17:08;99441.88;;;8.59;100.00
17855;BME280;9053;53.358;6.382;2022-11-23T00:19:40;99448.91;;;8.61;100.00
17855;BME280;9053;53.358;6.382;2022-11-23T00:22:10;99450.63;;;8.59;100.00
17855;BME280;9053;53.358;6.382;2022-11-23T00:24:39;99449.78;;;8.60;100.00
17855;BME280;9053;53.358;6.382;2022-11-23T00:27:09;99444.59;;;8.63;100.00
17855;BME280;9053;53.358;6.382;2022-11-23T00:29:39;99451.59;;;8.64;100.00
17855;BME280;9053;53.358;6.382;2022-11-23T00:32:08;99451.59;;;8.64;100.00
17855;BME280;9053;53.358;6.382;2022-11-23T00:34:41;99449.00;;;8.64;100.00
17855;BME280;9053;53.358;6.382;2022-11-23T00:37:11;99453.38;;;8.65;100.00
17855;BME280;9053;53.358;6.382;2022-11-23T00:39:40;99448.13;;;8.65;100.00
17855;BME280;9053;53.358;6.382;2022-11-23T00:42:10;99444.63;;;8.65;100.00
17855;BME280;9053;53.358;6.382;2022-11-23T00:44:40;99442.94;;;8.69;100.00
17855;BME280;9053;53.358;6.382;2022-11-23T00:47:09;99456.06;;;8.70;100.00
17855;BME280;9053;53.358;6.382;2022-11-23T00:49:42;99446.47;;;8.71;100.00
17855;BME280;9053;53.358;6.382;2022-11-23T00:52:11;99443.84;;;8.71;100.00
17855;BME280;9053;53.358;6.382;2022-11-23T00:54:41;99444.78;;;8.73;100.00
17855;BME280;9053;53.358;6.382;2022-11-23T00:57:11;99443.91;;;8.72;100.00
17855;BME280;9053;53.358;6.382;2022-11-23T00:59:40;99440.38;;;8.72;100.00
17855;BME280;9053;53.358;6.382;2022-11-23T01:02:10;99449.13;;;8.72;100.00
17855;BME280;9053;53.358;6.382;2022-11-23T01:04:43;99443.94;;;8.75;100.00
17855;BME280;9053;53.358;6.382;2022-11-23T01:07:12;99438.66;;;8.74;100.00
17855;BME280;9053;53.358;6.382;2022-11-23T01:09:42;99437.81;;;8.75;100.00
17855;BME280;9053;53.358;6.382;2022-11-23T01:12:12;99449.19;;;8.77;100.00
17855;BME280;9053;53.358;6.382;2022-11-23T01:14:42;99450.09;;;8.77;100.00
17855;BME280;9053;53.358;6.382;2022-11-23T01:17:11;99447.50;;;8.79;100.00
17855;BME280;9053;53.358;6.382;2022-11-23T01:19:44;99443.16;;;8.81;100.00
17855;BME280;9053;53.358;6.382;2022-11-23T01:22:14;99437.09;;;8.83;100.00
17855;BME280;9053;53.358;6.382;2022-11-23T01:24:45;99435.34;;;8.84;100.00
17855;BME280;9053;53.358;6.382;2022-11-23T01:27:15;99436.25;;;8.86;100.00
17855;BME280;9053;53.358;6.382;2022-11-23T01:29:45;99427.56;;;8.87;100.00
17855;BME280;9053;53.358;6.382;2022-11-23T01:32:15;99429.31;;;8.88;100.00
17855;BME280;9053;53.358;6.382;2022-11-23T01:34:47;99433.69;;;8.89;100.00
17855;BME280;9053;53.358;6.382;2022-11-23T01:37:17;99448.59;;;8.90;100.00
17855;BME280;9053;53.358;6.382;2022-11-23T01:39:47;99460.00;;;8.92;100.00
17855;BME280;9053;53.358;6.382;2022-11-23T01:42:17;99447.75;;;8.93;100.00
17855;BME280;9053;53.358;6.382;2022-11-23T01:44:47;99447.78;;;8.94;100.00
17855;BME280;9053;53.358;6.382;2022-11-23T01:47:17;99453.00;;;8.94;100.00
17855;BME280;9053;53.358;6.382;2022-11-23T01:49:51;99463.56;;;8.97;100.00
17855;BME280;9053;53.358;6.382;2022-11-23T01:52:23;99460.97;;;8.97;100.00
17855;BME280;9053;53.358;6.382;2022-11-23T01:54:55;99460.09;;;8.98;100.00
17855;BME280;9053;53.358;6.382;2022-11-23T01:57:36;99461.88;;;9.01;100.00
17855;BME280;9053;53.358;6.382;2022-11-23T02:00:08;99454.06;;;9.02;100.00
17855;BME280;9053;53.358;6.382;2022-11-23T02:02:44;99453.16;;;9.02;100.00
17855;BME280;9053;53.358;6.382;2022-11-23T02:05:20;99459.31;;;9.04;100.00
17855;BME280;9053;53.358;6.382;2022-11-23T02:07:52;99458.38;;;9.02;100.00
17855;BME280;9053;53.358;6.382;2022-11-23T02:10:22;99469.78;;;9.02;100.00
17855;BME280;9053;53.358;6.382;2022-11-23T02:12:53;99463.63;;;9.02;100.00
17855;BME280;9053;53.358;6.382;2022-11-23T02:15:23;99469.78;;;9.02;100.00
17855;BME280;9053;53.358;6.382;2022-11-23T02:17:53;99473.28;;;9.04;100.00
17855;BME280;9053;53.358;6.382;2022-11-23T02:20:26;99470.66;;;9.04;100.00
17855;BME280;9053;53.358;6.382;2022-11-23T02:23:06;99473.34;;;9.06;100.00
17855;BME280;9053;53.358;6.382;2022-11-23T02:25:51;99468.06;;;9.04;100.00
17855;BME280;9053;53.358;6.382;2022-11-23T02:28:25;99474.22;;;9.06;100.00
17855;BME280;9053;53.358;6.382;2022-11-23T02:30:56;99473.38;;;9.07;100.00
17855;BME280;9053;53.358;6.382;2022-11-23T02:33:26;99481.25;;;9.09;100.00
17855;BME280;9053;53.358;6.382;2022-11-23T02:35:58;99480.41;;;9.10;100.00
17855;BME280;9053;53.358;6.382;2022-11-23T02:38:32;99473.44;;;9.10;100.00
17855;BME280;9053;53.358;6.382;2022-11-23T02:41:05;99476.03;;;9.10;100.00
17855;BME280;9053;53.358;6.382;2022-11-23T02:43:35;99481.28;;;9.12;100.00
17855;BME280;9053;53.358;6.382;2022-11-23T02:46:05;99485.72;;;9.13;100.00
17855;BME280;9053;53.358;6.382;2022-11-23T02:48:35;99479.59;;;9.14;100.00
17855;BME280;9053;53.358;6.382;2022-11-23T02:51:05;99484.84;;;9.14;100.00
17855;BME280;9053;53.358;6.382;2022-11-23T02:53:35;99486.59;;;9.14;100.00
17855;BME280;9053;53.358;6.382;2022-11-23T02:56:07;99473.47;;;9.14;100.00
17855;BME280;9053;53.358;6.382;2022-11-23T02:58:37;99481.38;;;9.15;100.00
17855;BME280;9053;53.358;6.382;2022-11-23T03:01:07;99477.00;;;9.16;100.00
17855;BME280;9053;53.358;6.382;2022-11-23T03:03:36;99477.88;;;9.16;100.00
17855;BME280;9053;53.358;6.382;2022-11-23T03:06:06;99482.25;;;9.16;100.00
17855;BME280;9053;53.358;6.382;2022-11-23T03:08:36;99481.47;;;9.20;100.00
17855;BME280;9053;53.358;6.382;2022-11-23T03:11:08;99478.84;;;9.20;100.00
17855;BME280;9053;53.358;6.382;2022-11-23T03:13:38;99475.31;;;9.19;100.00
17855;BME280;9053;53.358;6.382;2022-11-23T03:16:09;99476.22;;;9.20;100.00
17855;BME280;9053;53.358;6.382;2022-11-23T03:18:39;99475.34;;;9.21;100.00
17855;BME280;9053;53.358;6.382;2022-11-23T03:21:09;99467.44;;;9.19;100.00
17855;BME280;9053;53.358;6.382;2022-11-23T03:23:39;99470.09;;;9.21;100.00
17855;BME280;9053;53.358;6.382;2022-11-23T03:26:11;99463.97;;;9.20;100.00
17855;BME280;9053;53.358;6.382;2022-11-23T03:28:41;99473.63;;;9.23;100.00
17855;BME280;9053;53.358;6.382;2022-11-23T03:31:11;99467.53;;;9.22;100.00
17855;BME280;9053;53.358;6.382;2022-11-23T03:33:40;99464.00;;;9.22;100.00
17855;BME280;9053;53.358;6.382;2022-11-23T03:36:10;99471.84;;;9.22;100.00
17855;BME280;9053;53.358;6.382;2022-11-23T03:38:40;99471.84;;;9.20;100.00
17855;BME280;9053;53.358;6.382;2022-11-23T03:41:13;99463.97;;;9.20;100.00
17855;BME280;9053;53.358;6.382;2022-11-23T03:43:42;99478.84;;;9.20;100.00
17855;BME280;9053;53.358;6.382;2022-11-23T03:46:12;99484.09;;;9.20;100.00
17855;BME280;9053;53.358;6.382;2022-11-23T03:48:42;99485.84;;;9.21;100.00
17855;BME280;9053;53.358;6.382;2022-11-23T03:51:12;99488.47;;;9.21;100.00
17855;BME280;9053;53.358;6.382;2022-11-23T03:53:41;99494.59;;;9.20;100.00
17855;BME280;9053;53.358;6.382;2022-11-23T03:56:14;99495.41;;;9.19;100.00
17855;BME280;9053;53.358;6.382;2022-11-23T03:58:44;99501.56;;;9.21;100.00
17855;BME280;9053;53.358;6.382;2022-11-23T04:01:13;99505.06;;;9.21;100.00
17855;BME280;9053;53.358;6.382;2022-11-23T04:03:43;99511.19;;;9.22;100.00
17855;BME280;9053;53.358;6.382;2022-11-23T04:06:13;99507.75;;;9.23;100.00
17855;BME280;9053;53.358;6.382;2022-11-23T04:08:43;99506.88;;;9.22;100.00
17855;BME280;9053;53.358;6.382;2022-11-23T04:11:15;99505.13;;;9.23;100.00
17855;BME280;9053;53.358;6.382;2022-11-23T04:13:45;99502.50;;;9.23;100.00
17855;BME280;9053;53.358;6.382;2022-11-23T04:16:15;99504.25;;;9.24;100.00
17855;BME280;9053;53.358;6.382;2022-11-23T04:18:45;99503.41;;;9.25;100.00
17855;BME280;9053;53.358;6.382;2022-11-23T04:21:14;99516.53;;;9.26;100.00
17855;BME280;9053;53.358;6.382;2022-11-23T04:23:44;99505.16;;;9.26;100.00
17855;BME280;9053;53.358;6.382;2022-11-23T04:26:16;99505.16;;;9.26;100.00
17855;BME280;9053;53.358;6.382;2022-11-23T04:28:46;99516.53;;;9.26;100.00
17855;BME280;9053;53.358;6.382;2022-11-23T04:31:16;99516.53;;;9.26;100.00
17855;BME280;9053;53.358;6.382;2022-11-23T04:33:46;99511.28;;;9.26;100.00
17855;BME280;9053;53.358;6.382;2022-11-23T04:36:15;99507.78;;;9.26;100.00
17855;BME280;9053;53.358;6.382;2022-11-23T04:38:45;99511.31;;;9.28;100.00
17855;BME280;9053;53.358;6.382;2022-11-23T04:41:18;99511.28;;;9.26;100.00
17855;BME280;9053;53.358;6.382;2022-11-23T04:43:48;99512.16;;;9.27;100.00
17855;BME280;9053;53.358;6.382;2022-11-23T04:46:17;99511.28;;;9.26;100.00
17855;BME280;9053;53.358;6.382;2022-11-23T04:48:47;99510.41;;;9.26;100.00
17855;BME280;9053;53.358;6.382;2022-11-23T04:51:17;99503.41;;;9.25;100.00
17855;BME280;9053;53.358;6.382;2022-11-23T04:53:47;99504.25;;;9.24;100.00
17855;BME280;9053;53.358;6.382;2022-11-23T04:56:20;99502.50;;;9.24;100.00
17855;BME280;9053;53.358;6.382;2022-11-23T04:58:50;99509.53;;;9.25;100.00
17855;BME280;9053;53.358;6.382;2022-11-23T05:01:19;99506.88;;;9.24;100.00
17855;BME280;9053;53.358;6.382;2022-11-23T05:03:49;99506.88;;;9.22;100.00
17855;BME280;9053;53.358;6.382;2022-11-23T05:06:19;99506.81;;;9.21;100.00
17855;BME280;9053;53.358;6.382;2022-11-23T05:08:49;99508.56;;;9.20;100.00
17855;BME280;9053;53.358;6.382;2022-11-23T05:11:22;99502.44;;;9.21;100.00
17855;BME280;9053;53.358;6.382;2022-11-23T05:13:52;99506.81;;;9.21;100.00
17855;BME280;9053;53.358;6.382;2022-11-23T05:16:22;99516.44;;;9.22;100.00
17855;BME280;9053;53.358;6.382;2022-11-23T05:18:52;99512.94;;;9.21;100.00
17855;BME280;9053;53.358;6.382;2022-11-23T05:21:22;99505.94;;;9.22;100.00
17855;BME280;9053;53.358;6.382;2022-11-23T05:23:51;99513.81;;;9.22;100.00
17855;BME280;9053;53.358;6.382;2022-11-23T05:26:25;99516.50;;;9.23;100.00
17855;BME280;9053;53.358;6.382;2022-11-23T05:28:55;99512.13;;;9.24;100.00
17855;BME280;9053;53.358;6.382;2022-11-23T05:31:24;99521.72;;;9.23;100.00
17855;BME280;9053;53.358;6.382;2022-11-23T05:33:55;99521.69;;;9.22;100.00
17855;BME280;9053;53.358;6.382;2022-11-23T05:36:25;99524.34;;;9.23;100.00
17855;BME280;9053;53.358;6.382;2022-11-23T05:38:55;99520.84;;;9.23;100.00
17855;BME280;9053;53.358;6.382;2022-11-23T05:41:27;99522.59;;;9.22;100.00
17855;BME280;9053;53.358;6.382;2022-11-23T05:43:57;99522.59;;;9.22;100.00
17855;BME280;9053;53.358;6.382;2022-11-23T05:46:27;99528.72;;;9.23;100.00
17855;BME280;9053;53.358;6.382;2022-11-23T05:48:56;99529.56;;;9.22;100.00
17855;BME280;9053;53.358;6.382;2022-11-23T05:51:26;99529.59;;;9.23;100.00
17855;BME280;9053;53.358;6.382;2022-11-23T05:53:57;99532.28;;;9.25;100.00
17855;BME280;9053;53.358;6.382;2022-11-23T05:56:30;99531.41;;;9.26;100.00
17855;BME280;9053;53.358;6.382;2022-11-23T05:59:05;99527.03;;;9.25;100.00
17855;BME280;9053;53.358;6.382;2022-11-23T06:01:35;99528.72;;;9.24;100.00
17855;BME280;9053;53.358;6.382;2022-11-23T06:04:05;99523.47;;;9.23;100.00
17855;BME280;9053;53.358;6.382;2022-11-23T06:06:35;99526.06;;;9.20;100.00
17855;BME280;9053;53.358;6.382;2022-11-23T06:09:05;99530.38;;;9.18;100.00
17855;BME280;9053;53.358;6.382;2022-11-23T06:11:37;99525.97;;;9.17;100.00
17855;BME280;9053;53.358;6.382;2022-11-23T06:14:07;99535.59;;;9.16;100.00
17855;BME280;9053;53.358;6.382;2022-11-23T06:16:40;99526.81;;;9.14;100.00
17855;BME280;9053;53.358;6.382;2022-11-23T06:19:09;99528.53;;;9.14;100.00
17855;BME280;9053;53.358;6.382;2022-11-23T06:21:39;99534.66;;;9.14;100.00
17855;BME280;9053;53.358;6.382;2022-11-23T06:24:15;99532.94;;;9.15;100.00
17855;BME280;9053;53.358;6.382;2022-11-23T06:26:48;99540.78;;;9.15;100.00
17855;BME280;9053;53.358;6.382;2022-11-23T06:29:18;99538.16;;;9.15;100.00
17855;BME280;9053;53.358;6.382;2022-11-23T06:31:48;99539.09;;;9.17;100.00
17855;BME280;9053;53.358;6.382;2022-11-23T06:34:18;99544.31;;;9.15;100.00
17855;BME280;9053;53.358;6.382;2022-11-23T06:36:47;99538.22;;;9.16;100.00
17855;BME280;9053;53.358;6.382;2022-11-23T06:39:17;99540.00;;;9.17;100.00
17855;BME280;9053;53.358;6.382;2022-11-23T06:41:50;99544.38;;;9.18;100.00
17855;BME280;9053;53.358;6.382;2022-11-23T06:44:39;99550.44;;;9.16;100.00
17855;BME280;9053;53.358;6.382;2022-11-23T06:47:09;99543.44;;;9.16;100.00
17855;BME280;9053;53.358;6.382;2022-11-23T06:49:43;99546.03;;;9.15;100.00
17855;BME280;9053;53.358;6.382;2022-11-23T06:52:14;99546.03;;;9.13;100.00
17855;BME280;9053;53.358;6.382;2022-11-23T06:54:43;99548.59;;;9.12;100.00
17855;BME280;9053;53.358;6.382;2022-11-23T06:57:16;99548.59;;;9.12;100.00
17855;BME280;9053;53.358;6.382;2022-11-23T06:59:46;99554.72;;;9.10;100.00
17855;BME280;9053;53.358;6.382;2022-11-23T07:02:16;99565.22;;;9.10;100.00
17855;BME280;9053;53.358;6.382;2022-11-23T07:04:45;99564.28;;;9.08;100.00
17855;BME280;9053;53.358;6.382;2022-11-23T07:07:15;99565.16;;;9.09;100.00
17855;BME280;9053;53.358;6.382;2022-11-23T07:09:45;99567.84;;;9.10;100.00
17855;BME280;9053;53.358;6.382;2022-11-23T07:12:17;99577.47;;;9.12;100.00
17855;BME280;9053;53.358;6.382;2022-11-23T07:14:47;99573.97;;;9.11;100.00
17855;BME280;9053;53.358;6.382;2022-11-23T07:17:17;99580.09;;;9.12;100.00
17855;BME280;9053;53.358;6.382;2022-11-23T07:19:47;99583.56;;;9.10;100.00
17855;BME280;9053;53.358;6.382;2022-11-23T07:22:16;99585.31;;;9.12;100.00
17855;BME280;9053;53.358;6.382;2022-11-23T07:24:46;99587.94;;;9.12;100.00
17855;BME280;9053;53.358;6.382;2022-11-23T07:27:19;99590.56;;;9.10;100.00
17855;BME280;9053;53.358;6.382;2022-11-23T07:29:49;99591.44;;;9.12;100.00
17855;BME280;9053;53.358;6.382;2022-11-23T07:32:19;99594.97;;;9.13;100.00
17855;BME280;9053;53.358;6.382;2022-11-23T07:34:48;99608.09;;;9.13;100.00
17855;BME280;9053;53.358;6.382;2022-11-23T07:37:18;99600.22;;;9.13;100.00
17855;BME280;9053;53.358;6.382;2022-11-23T07:39:48;99608.97;;;9.15;100.00
17855;BME280;9053;53.358;6.382;2022-11-23T07:42:26;99608.16;;;9.16;100.00
17855;BME280;9053;53.358;6.382;2022-11-23T07:45:03;99613.34;;;9.14;100.00
17855;BME280;9053;53.358;6.382;2022-11-23T07:47:33;99628.25;;;9.15;100.00
17855;BME280;9053;53.358;6.382;2022-11-23T07:50:05;99624.75;;;9.16;100.00
17855;BME280;9053;53.358;6.382;2022-11-23T07:52:36;99627.34;;;9.15;100.00
17855;BME280;9053;53.358;6.382;2022-11-23T07:55:06;99634.38;;;9.16;100.00
17855;BME280;9053;53.358;6.382;2022-11-23T07:57:39;99637.88;;;9.16;100.00
17855;BME280;9053;53.358;6.382;2022-11-23T08:00:10;99640.50;;;9.16;100.00
17855;BME280;9053;53.358;6.382;2022-11-23T08:02:40;99636.13;;;9.17;100.00
17855;BME280;9053;53.358;6.382;2022-11-23T08:05:30;99641.38;;;9.17;100.00
17855;BME280;9053;53.358;6.382;2022-11-23T08:08:01;99638.81;;;9.18;100.00
17855;BME280;9053;53.358;6.382;2022-11-23T08:10:31;99638.84;;;9.20;100.00
17855;BME280;9053;53.358;6.382;2022-11-23T08:13:12;99643.22;;;9.21;100.00
17855;BME280;9053;53.358;6.382;2022-11-23T08:15:42;99639.72;;;9.22;100.00
17855;BME280;9053;53.358;6.382;2022-11-23T08:18:20;99637.16;;;9.23;100.00
17855;BME280;9053;53.358;6.382;2022-11-23T08:20:50;99638.03;;;9.24;100.00
17855;BME280;9053;53.358;6.382;2022-11-23T08:23:20;99638.03;;;9.24;100.00
17855;BME280;9053;53.358;6.382;2022-11-23T08:25:51;99641.53;;;9.24;100.00
17855;BME280;9053;53.358;6.382;2022-11-23T08:28:23;99635.44;;;9.25;100.00
17855;BME280;9053;53.358;6.382;2022-11-23T08:30:53;99637.22;;;9.26;100.00
17855;BME280;9053;53.358;6.382;2022-11-23T08:33:23;99645.94;;;9.27;100.00
17855;BME280;9053;53.358;6.382;2022-11-23T08:35:53;99645.13;;;9.28;100.00
17855;BME280;9053;53.358;6.382;2022-11-23T08:38:23;99639.00;;;9.29;100.00
17855;BME280;9053;53.358;6.382;2022-11-23T08:40:57;99645.13;;;9.29;100.00
17855;BME280;9053;53.358;6.382;2022-11-23T08:43:29;99646.94;;;9.32;100.00
17855;BME280;9053;53.358;6.382;2022-11-23T08:45:59;99639.06;;;9.32;100.00
17855;BME280;9053;53.358;6.382;2022-11-23T08:48:36;99639.09;;;9.34;100.00
17855;BME280;9053;53.358;6.382;2022-11-23T08:51:06;99650.53;;;9.36;100.00
17855;BME280;9053;53.358;6.382;2022-11-23T08:53:36;99645.28;;;9.37;100.00
17855;BME280;9053;53.358;6.382;2022-11-23T08:56:07;99642.69;;;9.39;100.00
17855;BME280;9053;53.358;6.382;2022-11-23T08:58:39;99648.00;;;9.42;100.00
17855;BME280;9053;53.358;6.382;2022-11-23T09:01:10;99647.16;;;9.44;100.00
17855;BME280;9053;53.358;6.382;2022-11-23T09:03:41;99643.72;;;9.45;100.00
17855;BME280;9053;53.358;6.382;2022-11-23T09:06:11;99645.53;;;9.49;100.00
17855;BME280;9053;53.358;6.382;2022-11-23T09:08:43;99647.31;;;9.50;100.00
17855;BME280;9053;53.358;6.382;2022-11-23T09:11:16;99645.59;;;9.52;100.00
17855;BME280;9053;53.358;6.382;2022-11-23T09:13:49;99650.84;;;9.54;100.00
17855;BME280;9053;53.358;6.382;2022-11-23T09:16:19;99643.03;;;9.56;100.00
17855;BME280;9053;53.358;6.382;2022-11-23T09:18:54;99649.19;;;9.58;100.00
17855;BME280;9053;53.358;6.382;2022-11-23T09:21:24;99649.19;;;9.59;100.00
17855;BME280;9053;53.358;6.382;2022-11-23T09:23:59;99644.81;;;9.58;100.00
17855;BME280;9053;53.358;6.382;2022-11-23T09:26:28;99650.13;;;9.61;100.00
17855;BME280;9053;53.358;6.382;2022-11-23T09:29:02;99648.38;;;9.62;100.00
17855;BME280;9053;53.358;6.382;2022-11-23T09:31:32;99650.16;;;9.63;100.00
17855;BME280;9053;53.358;6.382;2022-11-23T09:34:02;99651.97;;;9.65;100.00
17855;BME280;9053;53.358;6.382;2022-11-23T09:36:32;99653.72;;;9.66;100.00
17855;BME280;9053;53.358;6.382;2022-11-23T09:39:02;99652.00;;;9.68;100.00
17855;BME280;9053;53.358;6.382;2022-11-23T09:41:59;99651.19;;;9.71;100.00
17855;BME280;9053;53.358;6.382;2022-11-23T09:44:43;99651.19;;;9.72;100.00
17855;BME280;9053;53.358;6.382;2022-11-23T09:47:30;99648.56;;;9.72;100.00
17855;BME280;9053;53.358;6.382;2022-11-23T09:50:11;99645.97;;;9.74;100.00
17855;BME280;9053;53.358;6.382;2022-11-23T09:52:47;99650.34;;;9.75;100.00
17855;BME280;9053;53.358;6.382;2022-11-23T09:55:34;99643.41;;;9.75;100.00
17855;BME280;9053;53.358;6.382;2022-11-23T09:58:05;99647.78;;;9.77;100.00
17855;BME280;9053;53.358;6.382;2022-11-23T10:00:43;99651.31;;;9.79;100.00
17855;BME280;9053;53.358;6.382;2022-11-23T10:03:16;99642.56;;;9.80;100.00
17855;BME280;9053;53.358;6.382;2022-11-23T10:05:57;99651.41;;;9.83;100.00
17855;BME280;9053;53.358;6.382;2022-11-23T10:08:35;99655.81;;;9.86;100.00
17855;BME280;9053;53.358;6.382;2022-11-23T10:11:30;99648.88;;;9.88;100.00
17855;BME280;9053;53.358;6.382;2022-11-23T10:14:13;99645.41;;;9.90;100.00
17855;BME280;9053;53.358;6.382;2022-11-23T10:16:58;99647.19;;;9.93;100.00
17855;BME280;9053;53.358;6.382;2022-11-23T10:19:43;99644.63;;;9.96;100.00
17855;BME280;9053;53.358;6.382;2022-11-23T10:22:19;99644.63;;;9.97;100.00
17855;BME280;9053;53.358;6.382;2022-11-23T10:24:52;99638.53;;;9.99;100.00
17855;BME280;9053;53.358;6.382;2022-11-23T10:27:23;99631.56;;;10.01;100.00
17855;BME280;9053;53.358;6.382;2022-11-23T10:29:53;99634.25;;;10.04;100.00
17855;BME280;9053;53.358;6.382;2022-11-23T10:32:30;99637.81;;;10.09;100.00
17855;BME280;9053;53.358;6.382;2022-11-23T10:35:07;99634.31;;;10.10;100.00
17855;BME280;9053;53.358;6.382;2022-11-23T10:37:40;99636.13;;;10.11;100.00
17855;BME280;9053;53.358;6.382;2022-11-23T10:40:15;99629.13;;;10.13;100.00
17855;BME280;9053;53.358;6.382;2022-11-23T10:42:47;99633.50;;;10.12;100.00
17855;BME280;9053;53.358;6.382;2022-11-23T10:45:21;99627.38;;;10.12;100.00
17855;BME280;9053;53.358;6.382;2022-11-23T10:47:55;99623.00;;;10.12;100.00
17855;BME280;9053;53.358;6.382;2022-11-23T10:50:27;99620.44;;;10.15;100.00
17855;BME280;9053;53.358;6.382;2022-11-23T10:53:18;99617.84;;;10.18;100.00
17855;BME280;9053;53.358;6.382;2022-11-23T10:55:51;99620.47;;;10.20;100.00
17855;BME280;9053;53.358;6.382;2022-11-23T10:58:26;99611.75;;;10.21;100.00
17855;BME280;9053;53.358;6.382;2022-11-23T11:01:01;99619.63;;;10.21;100.00
17855;BME280;9053;53.358;6.382;2022-11-23T11:03:34;99615.22;;;10.20;100.00
17855;BME280;9053;53.358;6.382;2022-11-23T11:06:04;99612.59;;;10.20;100.00
17855;BME280;9053;53.358;6.382;2022-11-23T11:08:48;99603.88;;;10.21;100.00
17855;BME280;9053;53.358;6.382;2022-11-23T11:11:24;99605.63;;;10.22;100.00
17855;BME280;9053;53.358;6.382;2022-11-23T11:14:02;99600.38;;;10.22;100.00
17855;BME280;9053;53.358;6.382;2022-11-23T11:16:34;99596.88;;;10.22;100.00
17855;BME280;9053;53.358;6.382;2022-11-23T11:19:21;99592.53;;;10.25;100.00
17855;BME280;9053;53.358;6.382;2022-11-23T11:21:51;99582.13;;;10.28;100.00
17855;BME280;9053;53.358;6.382;2022-11-23T11:24:27;99582.19;;;10.34;100.00
17855;BME280;9053;53.358;6.382;2022-11-23T11:27:02;99583.16;;;10.39;100.00
17855;BME280;9053;53.358;6.382;2022-11-23T11:29:36;99570.09;;;10.46;100.00
17855;BME280;9053;53.358;6.382;2022-11-23T11:32:10;99574.53;;;10.50;100.00
17855;BME280;9053;53.358;6.382;2022-11-23T11:34:48;99571.94;;;10.53;100.00
17855;BME280;9053;53.358;6.382;2022-11-23T11:37:26;99570.25;;;10.58;100.00
17855;BME280;9053;53.358;6.382;2022-11-23T11:40:07;99569.44;;;10.62;100.00
17855;BME280;9053;53.358;6.382;2022-11-23T11:42:41;99558.97;;;10.65;100.00
17855;BME280;9053;53.358;6.382;2022-11-23T11:45:15;99562.50;;;10.67;100.00
17855;BME280;9053;53.358;6.382;2022-11-23T11:47:50;99551.09;;;10.68;100.00
17855;BME280;9053;53.358;6.382;2022-11-23T11:50:28;99542.34;;;10.68;100.00
17855;BME280;9053;53.358;6.382;2022-11-23T11:53:03;99545.81;;;10.65;100.00
17855;BME280;9053;53.358;6.382;2022-11-23T11:55:45;99552.78;;;10.63;100.00
17855;BME280;9053;53.358;6.382;2022-11-23T11:58:17;99544.88;;;10.60;100.00
17855;BME280;9053;53.358;6.382;2022-11-23T12:00:48;99545.81;;;10.65;100.00
17855;BME280;9053;53.358;6.382;2022-11-23T12:03:23;99549.34;;;10.67;100.00
17855;BME280;9053;53.358;6.382;2022-11-23T12:06:03;99544.13;;;10.70;100.00
17855;BME280;9053;53.358;6.382;2022-11-23T12:08:41;99540.69;;;10.74;100.00
17855;BME280;9053;53.358;6.382;2022-11-23T12:11:14;99541.59;;;10.78;100.00
17855;BME280;9053;53.358;6.382;2022-11-23T12:13:45;99551.25;;;10.80;100.00
17855;BME280;9053;53.358;6.382;2022-11-23T12:16:22;99556.59;;;10.83;100.00
17855;BME280;9053;53.358;6.382;2022-11-23T12:19:08;99557.47;;;10.84;100.00
17855;BME280;9053;53.358;6.382;2022-11-23T12:22:15;99570.63;;;10.87;100.00
17855;BME280;9053;53.358;6.382;2022-11-23T12:25:02;99575.03;;;10.87;100.00
17855;BME280;9053;53.358;6.382;2022-11-23T12:27:44;99571.53;;;10.86;100.00
17855;BME280;9053;53.358;6.382;2022-11-23T12:30:20;99565.34;;;10.86;100.00
17855;BME280;9053;53.358;6.382;2022-11-23T12:33:14;99568.88;;;10.88;100.00
17855;BME280;9053;53.358;6.382;2022-11-23T12:35:53;99566.25;;;10.88;100.00
17855;BME280;9053;53.358;6.382;2022-11-23T12:38:39;99565.44;;;10.92;100.00
17855;BME280;9053;53.358;6.382;2022-11-23T12:41:22;99571.56;;;10.92;100.00
17855;BME280;9053;53.358;6.382;2022-11-23T12:44:02;99570.66;;;10.90;100.00
17855;BME280;9053;53.358;6.382;2022-11-23T12:46:40;99565.41;;;10.89;100.00
17855;BME280;9053;53.358;6.382;2022-11-23T12:49:21;99567.13;;;10.87;100.00
17855;BME280;9053;53.358;6.382;2022-11-23T12:52:06;99579.41;;;10.86;100.00
17855;BME280;9053;53.358;6.382;2022-11-23T12:54:52;99564.50;;;10.87;100.00
17855;BME280;9053;53.358;6.382;2022-11-23T12:57:28;99582.03;;;10.88;100.00
17855;BME280;9053;53.358;6.382;2022-11-23T13:00:04;99575.03;;;10.87;100.00
17855;BME280;9053;53.358;6.382;2022-11-23T13:09:13;99582.94;;;10.90;100.00
17855;BME280;9053;53.358;6.382;2022-11-23T13:12:07;99573.31;;;10.90;100.00
17855;BME280;9053;53.358;6.382;2022-11-23T13:14:47;99575.97;;;10.92;100.00
17855;BME280;9053;53.358;6.382;2022-11-23T13:17:29;99565.44;;;10.92;100.00
17855;BME280;9053;53.358;6.382;2022-11-23T13:20:38;99566.34;;;10.94;100.00
17855;BME280;9053;53.358;6.382;2022-11-23T13:23:14;99567.16;;;10.90;100.00
17855;BME280;9053;53.358;6.382;2022-11-23T13:26:11;99563.69;;;10.92;100.00
17855;BME280;9053;53.358;6.382;2022-11-23T13:28:46;99558.44;;;10.92;100.00
17855;BME280;9053;53.358;6.382;2022-11-23T13:31:24;99562.81;;;10.93;100.00
17855;BME280;9053;53.358;6.382;2022-11-23T13:33:58;99560.22;;;10.95;100.00
17855;BME280;9053;53.358;6.382;2022-11-23T13:36:41;99548.81;;;10.94;100.00
17855;BME280;9053;53.358;6.382;2022-11-23T13:40:00;99548.81;;;10.94;100.00
17855;BME280;9053;53.358;6.382;2022-11-23T13:42:31;99548.78;;;10.91;100.00
17855;BME280;9053;53.358;6.382;2022-11-23T13:45:28;99547.88;;;10.89;100.00
17855;BME280;9053;53.358;6.382;2022-11-23T13:48:12;99548.72;;;10.87;100.00